sensor_id;sensor_type;location;lat;lon;timestamp;temperature;humidity
53926;DHT22;39836;52.754;6.866;2023-07-16T13:40:05;22.40;71.50
53926;DHT22;39836;52.754;6.866;2023-07-16T14:25:03;22.90;71.10
53926;DHT22;39836;52.754;6.866;2023-07-16T14:27:32;23.00;71.00
53926;DHT22;39836;52.754;6.866;2023-07-16T14:30:02;22.70;71.00
53926;DHT22;39836;52.754;6.866;2023-07-16T14:34:01;22.50;71.10
53926;DHT22;39836;52.754;6.866;2023-07-16T14:36:10;22.80;71.70
53926;DHT22;39836;52.754;6.866;2023-07-16T14:38:37;23.20;71.50
53926;DHT22;39836;52.754;6.866;2023-07-16T14:41:09;23.60;71.10
53926;DHT22;39836;52.754;6.866;2023-07-16T14:43:50;23.90;70.60
53926;DHT22;39836;52.754;6.866;2023-07-16T14:46:24;24.20;70.60
53926;DHT22;39836;52.754;6.866;2023-07-16T14:48:55;24.40;70.50
53926;DHT22;39836;52.754;6.866;2023-07-16T14:51:22;24.50;70.00
53926;DHT22;39836;52.754;6.866;2023-07-16T14:53:48;24.70;69.50
53926;DHT22;39836;52.754;6.866;2023-07-16T14:56:14;24.60;69.10
53926;DHT22;39836;52.754;6.866;2023-07-16T14:58:39;24.40;69.00
53926;DHT22;39836;52.754;6.866;2023-07-16T15:01:05;24.50;69.00
53926;DHT22;39836;52.754;6.866;2023-07-16T15:03:36;24.60;68.90
53926;DHT22;39836;52.754;6.866;2023-07-16T15:06:03;24.60;69.00
53926;DHT22;39836;52.754;6.866;2023-07-16T15:08:29;24.80;68.90
53926;DHT22;39836;52.754;6.866;2023-07-16T15:11:00;24.90;68.60
53926;DHT22;39836;52.754;6.866;2023-07-16T15:13:26;24.70;68.30
53926;DHT22;39836;52.754;6.866;2023-07-16T15:15:54;24.30;68.10
53926;DHT22;39836;52.754;6.866;2023-07-16T15:18:20;24.20;68.70
53926;DHT22;39836;52.754;6.866;2023-07-16T15:20:47;24.10;68.80
53926;DHT22;39836;52.754;6.866;2023-07-16T15:23:13;23.80;68.60
53926;DHT22;39836;52.754;6.866;2023-07-16T15:25:42;23.50;68.60
53926;DHT22;39836;52.754;6.866;2023-07-16T15:28:09;23.20;68.80
53926;DHT22;39836;52.754;6.866;2023-07-16T15:30:36;23.00;69.10
53926;DHT22;39836;52.754;6.866;2023-07-16T15:33:02;22.90;69.10
53926;DHT22;39836;52.754;6.866;2023-07-16T15:35:28;22.90;69.20
53926;DHT22;39836;52.754;6.866;2023-07-16T15:37:53;22.80;69.10
53926;DHT22;39836;52.754;6.866;2023-07-16T15:40:19;22.60;69.30
53926;DHT22;39836;52.754;6.866;2023-07-16T15:42:45;22.50;69.60
53926;DHT22;39836;52.754;6.866;2023-07-16T15:45:12;22.30;69.70
53926;DHT22;39836;52.754;6.866;2023-07-16T15:47:38;22.10;70.00
53926;DHT22;39836;52.754;6.866;2023-07-16T15:50:05;22.00;70.10
53926;DHT22;39836;52.754;6.866;2023-07-16T15:52:30;21.90;70.20
53926;DHT22;39836;52.754;6.866;2023-07-16T15:54:56;21.90;70.00
53926;DHT22;39836;52.754;6.866;2023-07-16T15:57:22;22.00;70.00
53926;DHT22;39836;52.754;6.866;2023-07-16T15:59:51;22.10;69.90
53926;DHT22;39836;52.754;6.866;2023-07-16T16:02:16;22.30;69.80
53926;DHT22;39836;52.754;6.866;2023-07-16T16:04:52;22.30;69.80
53926;DHT22;39836;52.754;6.866;2023-07-16T16:07:17;22.40;69.90
53926;DHT22;39836;52.754;6.866;2023-07-16T16:09:55;22.40;69.90
53926;DHT22;39836;52.754;6.866;2023-07-16T16:12:32;22.60;70.10
53926;DHT22;39836;52.754;6.866;2023-07-16T16:15:10;22.90;69.60
53926;DHT22;39836;52.754;6.866;2023-07-16T16:17:36;23.00;69.50
53926;DHT22;39836;52.754;6.866;2023-07-16T16:20:05;22.90;69.40
53926;DHT22;39836;52.754;6.866;2023-07-16T16:23:07;22.70;69.50
53926;DHT22;39836;52.754;6.866;2023-07-16T16:25:34;22.60;69.60
53926;DHT22;39836;52.754;6.866;2023-07-16T16:28:01;22.70;69.80
53926;DHT22;39836;52.754;6.866;2023-07-16T16:30:39;22.90;70.00
53926;DHT22;39836;52.754;6.866;2023-07-16T16:33:09;23.10;70.00
53926;DHT22;39836;52.754;6.866;2023-07-16T16:35:40;23.20;69.80
53926;DHT22;39836;52.754;6.866;2023-07-16T16:38:09;23.20;69.60
53926;DHT22;39836;52.754;6.866;2023-07-16T16:41:49;23.30;69.60
53926;DHT22;39836;52.754;6.866;2023-07-16T16:45:27;23.30;69.30
53926;DHT22;39836;52.754;6.866;2023-07-16T16:48:34;23.00;69.20
53926;DHT22;39836;52.754;6.866;2023-07-16T16:52:19;22.80;69.10
53926;DHT22;39836;52.754;6.866;2023-07-16T16:56:16;22.50;69.10
53926;DHT22;39836;52.754;6.866;2023-07-16T17:02:57;22.50;68.80
53926;DHT22;39836;52.754;6.866;2023-07-16T17:05:31;22.40;68.80
53926;DHT22;39836;52.754;6.866;2023-07-16T17:15:59;22.40;69.00
53926;DHT22;39836;52.754;6.866;2023-07-16T17:19:07;22.20;69.10
53926;DHT22;39836;52.754;6.866;2023-07-16T17:25:48;22.10;69.70
53926;DHT22;39836;52.754;6.866;2023-07-16T17:29:18;22.00;69.90
53926;DHT22;39836;52.754;6.866;2023-07-16T17:39:30;22.50;70.00
53926;DHT22;39836;52.754;6.866;2023-07-16T21:30:47;17.80;77.80
53926;DHT22;39836;52.754;6.866;2023-07-16T21:56:39;18.20;76.70
53926;DHT22;39836;52.754;6.866;2023-07-16T21:59:05;18.20;76.50
53926;DHT22;39836;52.754;6.866;2023-07-16T22:01:31;18.30;76.40
53926;DHT22;39836;52.754;6.866;2023-07-16T22:03:57;18.40;76.30
53926;DHT22;39836;52.754;6.866;2023-07-16T22:06:23;18.30;76.20
53926;DHT22;39836;52.754;6.866;2023-07-16T22:08:48;18.30;76.20
53926;DHT22;39836;52.754;6.866;2023-07-16T22:11:44;18.30;76.10
